Durham, United Kingdom
Current Conditions -  °F | °C
As of 7:20 AM on Saturday 20 Dec 2014 (Local Time) from EGNT Reporting Station
Few Clouds Few Clouds  
Wind Chill: -1°   Ceiling: Unl
Heat Index:   Visibility: 6mi
Dew Point:   Wind: 24mph
Humidity: 87%   Direction: 280°W
Pressure: 29.88"   Gusts: NA
Location:  54.77°N, 1.58°W
Report Text: EGNT 200720Z 28021KT 9999 FEW020 05/03 Q1012
Loading
Personal Weather Stations






























Interactive Weather Map New forecast layout! Learn more

10-Day Weather Forecast

Advertisements
Track Severe Weather on mobile